Time;durP1;ratioP1;P1;durP2;ratioP2;P2;SDS_P1;SDS_P2;PMS_P1;PMS_P2;Temp;Humidity;BMP_temperature;BMP_pressure;BME280_temperature;BME280_humidity;BME280_pressure;Samples;Min_cycle;Max_cycle;Signal;HPM_P1;HPM_P2
2023/11/08 00:00:25;;;;;;;1.63;1.08;;;4.60;99.90;;;;;;4993904;28;20555;-70
2023/11/08 00:02:52;;;;;;;1.80;1.55;;;4.70;99.90;;;;;;4993639;28;20209;-70
2023/11/08 00:05:19;;;;;;;1.95;1.30;;;4.70;99.90;;;;;;4993591;28;20575;-70
2023/11/08 00:07:46;;;;;;;3.85;1.80;;;4.70;99.90;;;;;;4993044;28;20246;-70
2023/11/08 00:10:13;;;;;;;1.15;0.95;;;4.70;99.90;;;;;;4993699;28;20560;-70
2023/11/08 00:12:42;;;;;;;2.38;1.25;;;4.70;99.90;;;;;;4993634;28;20207;-70
2023/11/08 04:31:02;;;;;;;2.60;1.75;;;5.30;99.90;;;;;;5850036;23;20282;-94
2023/11/08 04:33:29;;;;;;;3.70;1.67;;;5.30;99.90;;;;;;5018504;28;20191;-94
2023/11/08 04:35:56;;;;;;;1.60;1.48;;;5.30;99.90;;;;;;5019386;28;20219;-95
2023/11/08 04:38:22;;;;;;;3.63;1.40;;;5.30;99.90;;;;;;5024845;23;20721;-70
2023/11/08 04:40:49;;;;;;;2.50;1.00;;;5.40;99.90;;;;;;4973432;28;20232;-69
2023/11/08 04:43:24;;;;;;;1.50;1.40;;;5.40;99.90;;;;;;4973806;28;20208;-69
2023/11/08 04:45:51;;;;;;;5.15;1.30;;;5.40;99.90;;;;;;4969550;28;20224;-69
2023/11/08 04:48:19;;;;;;;1.52;1.42;;;5.50;99.90;;;;;;4972756;28;20216;-69
2023/11/08 04:50:46;;;;;;;1.75;1.40;;;5.50;99.90;;;;;;4972723;28;20250;-69
2023/11/08 04:53:13;;;;;;;1.60;0.90;;;5.50;99.90;;;;;;4973239;28;20212;-69
2023/11/08 04:55:40;;;;;;;2.22;1.38;;;5.60;99.90;;;;;;4972498;28;20599;-69
2023/11/08 04:58:07;;;;;;;1.30;1.10;;;5.60;99.90;;;;;;4972459;28;20212;-70
2023/11/08 05:00:34;;;;;;;2.25;1.52;;;5.60;99.90;;;;;;4972916;28;20223;-69
2023/11/08 05:03:00;;;;;;;1.90;1.25;;;5.70;99.90;;;;;;4972780;28;20232;-69
2023/11/08 05:05:28;;;;;;;2.10;1.30;;;5.70;99.90;;;;;;4972786;28;20201;-70
2023/11/08 05:07:55;;;;;;;3.08;1.90;;;5.70;99.90;;;;;;4972014;28;20210;-70
2023/11/08 05:10:22;;;;;;;3.17;1.63;;;5.70;99.90;;;;;;4972881;28;20298;-70
2023/11/08 05:12:49;;;;;;;1.70;1.35;;;5.60;99.90;;;;;;4972757;28;20276;-69
2023/11/08 05:15:16;;;;;;;1.48;1.30;;;5.60;99.90;;;;;;4972265;28;20252;-70
2023/11/08 05:17:43;;;;;;;3.38;1.40;;;5.50;99.90;;;;;;4971975;28;20204;-69
2023/11/08 05:20:11;;;;;;;2.50;2.00;;;5.50;99.90;;;;;;4972841;28;20219;-69
2023/11/08 05:22:39;;;;;;;2.05;1.30;;;5.40;99.90;;;;;;4972040;28;20252;-69
2023/11/08 05:25:07;;;;;;;3.05;1.23;;;5.40;99.90;;;;;;4972461;28;20211;-69
2023/11/08 05:27:34;;;;;;;2.95;1.30;;;5.30;99.90;;;;;;4971897;28;20227;-70
2023/11/08 05:30:01;;;;;;;5.57;1.55;;;5.30;99.90;;;;;;4972733;28;20723;-70
2023/11/08 05:32:28;;;;;;;2.00;1.52;;;5.30;99.90;;;;;;4972456;28;20231;-71
2023/11/08 05:34:56;;;;;;;2.08;1.55;;;5.20;99.90;;;;;;4972530;28;20211;-70
2023/11/08 05:37:23;;;;;;;2.47;1.80;;;5.20;99.90;;;;;;4972142;28;20216;-70
2023/11/08 05:39:53;;;;;;;1.45;1.35;;;5.10;99.90;;;;;;4972315;28;20682;-70
2023/11/08 05:42:22;;;;;;;4.03;1.70;;;5.10;99.90;;;;;;4972671;28;20228;-70
2023/11/08 05:44:50;;;;;;;1.40;1.20;;;5.00;99.90;;;;;;4972347;28;20559;-70
2023/11/08 05:47:17;;;;;;;2.10;1.55;;;5.00;99.90;;;;;;4967631;28;20663;-70
2023/11/08 05:49:44;;;;;;;1.40;1.30;;;5.00;99.90;;;;;;4972355;28;20243;-70
2023/11/08 05:52:10;;;;;;;2.92;2.03;;;5.00;99.90;;;;;;4972479;28;20716;-70
2023/11/08 05:54:37;;;;;;;1.73;1.40;;;5.00;99.90;;;;;;4972333;28;20215;-70
2023/11/08 05:57:06;;;;;;;3.70;1.88;;;4.90;99.90;;;;;;4972064;28;20224;-70
2023/11/08 05:59:32;;;;;;;8.73;2.58;;;4.90;99.90;;;;;;4972086;28;20343;-70
2023/11/08 06:02:00;;;;;;;1.52;1.30;;;4.90;99.90;;;;;;4972038;28;20743;-70
2023/11/08 06:04:27;;;;;;;1.90;1.63;;;4.90;99.90;;;;;;4972372;28;20287;-70
2023/11/08 06:06:54;;;;;;;1.40;1.20;;;4.80;99.90;;;;;;4969181;28;20212;-69
2023/11/08 06:09:21;;;;;;;1.90;1.70;;;4.80;99.90;;;;;;4972105;28;20223;-70
2023/11/08 06:11:49;;;;;;;4.85;1.98;;;4.80;99.90;;;;;;4973406;28;23888;-71
2023/11/08 06:14:18;;;;;;;4.70;1.50;;;4.80;99.90;;;;;;4968790;28;20208;-71
2023/11/08 06:16:45;;;;;;;2.30;1.58;;;4.80;99.90;;;;;;4972140;28;20227;-71
2023/11/08 06:19:11;;;;;;;1.92;1.45;;;4.70;99.90;;;;;;4971773;28;20218;-72
2023/11/08 06:21:38;;;;;;;1.80;1.50;;;4.70;99.90;;;;;;4971810;28;20610;-72
2023/11/08 06:24:05;;;;;;;1.85;1.50;;;4.80;99.90;;;;;;4971978;28;20204;-72
2023/11/08 06:26:32;;;;;;;2.45;1.75;;;4.70;99.90;;;;;;4971822;28;20211;-72
2023/11/08 06:28:59;;;;;;;5.57;2.13;;;4.70;99.90;;;;;;4971655;28;20586;-72
2023/11/08 06:31:27;;;;;;;1.90;1.45;;;4.70;99.90;;;;;;4971366;28;20232;-72
2023/11/08 06:33:53;;;;;;;1.20;1.10;;;4.80;99.90;;;;;;4969160;28;20208;-70
2023/11/08 06:36:20;;;;;;;4.50;1.75;;;4.70;99.90;;;;;;4971626;28;20250;-72
2023/11/08 06:38:47;;;;;;;2.53;1.98;;;4.70;99.90;;;;;;4970529;28;20212;-71
2023/11/08 06:41:14;;;;;;;1.63;1.52;;;4.70;99.90;;;;;;4971848;28;20228;-71
2023/11/08 06:43:40;;;;;;;1.52;1.30;;;4.70;99.90;;;;;;4971433;28;20212;-71
2023/11/08 06:46:07;;;;;;;2.40;1.70;;;4.70;99.90;;;;;;4975626;28;20214;-71
2023/11/08 06:48:35;;;;;;;4.35;1.50;;;4.70;99.90;;;;;;4975643;28;20218;-71
2023/11/08 06:51:02;;;;;;;2.75;1.35;;;4.70;99.90;;;;;;4975991;28;20232;-71
2023/11/08 06:53:28;;;;;;;1.67;1.58;;;4.70;99.90;;;;;;4975998;28;20214;-71
2023/11/08 06:55:57;;;;;;;1.70;1.42;;;4.70;99.90;;;;;;4975063;28;20246;-70
2023/11/08 06:58:28;;;;;;;3.65;1.30;;;4.70;99.90;;;;;;4975326;28;20395;-72
2023/11/08 07:00:55;;;;;;;3.90;1.73;;;4.80;99.90;;;;;;4975224;28;20227;-72
2023/11/08 07:03:22;;;;;;;2.88;1.60;;;4.80;99.90;;;;;;4975791;28;20212;-72
2023/11/08 07:05:50;;;;;;;2.97;2.30;;;4.90;99.90;;;;;;4974979;28;20212;-72
2023/11/08 07:08:17;;;;;;;2.42;1.65;;;5.00;99.90;;;;;;4969727;28;20601;-71
2023/11/08 07:10:44;;;;;;;1.88;1.25;;;5.00;99.90;;;;;;4975112;28;20231;-71
2023/11/08 07:13:10;;;;;;;2.17;1.30;;;5.10;99.90;;;;;;4975384;28;20349;-71
2023/11/08 07:15:37;;;;;;;2.25;1.73;;;5.10;99.90;;;;;;4974985;28;20215;-71
2023/11/08 07:18:04;;;;;;;2.38;1.52;;;5.20;99.90;;;;;;4975051;28;20224;-72
2023/11/08 07:20:31;;;;;;;5.20;1.55;;;5.30;99.90;;;;;;4975504;28;20215;-73
2023/11/08 07:23:01;;;;;;;1.23;1.13;;;5.40;99.90;;;;;;4974872;28;20210;-70
2023/11/08 07:25:28;;;;;;;1.30;1.20;;;5.50;99.90;;;;;;4975224;28;20235;-71
2023/11/08 07:27:56;;;;;;;3.03;1.73;;;5.60;99.90;;;;;;4974212;28;20300;-72
2023/11/08 07:30:22;;;;;;;2.22;1.88;;;5.80;99.90;;;;;;4975025;28;20209;-71
2023/11/08 07:32:49;;;;;;;4.40;1.42;;;6.20;99.90;;;;;;4974243;28;20206;-71
2023/11/08 07:35:16;;;;;;;2.10;1.25;;;6.80;99.90;;;;;;4974483;28;20687;-71
2023/11/08 07:37:43;;;;;;;2.17;1.40;;;7.40;99.90;;;;;;4974137;28;20214;-72
2023/11/08 07:40:12;;;;;;;2.80;1.60;;;7.50;99.90;;;;;;4974792;28;20226;-71
2023/11/08 07:42:39;;;;;;;1.40;1.30;;;7.50;99.90;;;;;;4974556;28;20213;-71
2023/11/08 07:45:06;;;;;;;1.50;1.40;;;7.70;99.90;;;;;;4974652;28;20588;-72
2023/11/08 07:47:32;;;;;;;6.13;1.83;;;8.00;99.90;;;;;;4974406;28;20891;-72
2023/11/08 07:49:59;;;;;;;4.13;1.40;;;8.20;99.90;;;;;;4971949;28;20635;-71
2023/11/08 07:52:26;;;;;;;1.33;1.10;;;8.10;99.90;;;;;;4973303;28;20227;-72
2023/11/08 07:54:53;;;;;;;3.75;1.48;;;7.90;99.90;;;;;;4973988;28;20270;-70
2023/11/08 07:57:22;;;;;;;1.38;1.25;;;7.80;99.90;;;;;;4973596;28;20298;-70
2023/11/08 07:59:50;;;;;;;2.10;1.77;;;7.80;99.90;;;;;;4973809;28;20233;-71
2023/11/08 08:02:17;;;;;;;1.75;1.55;;;7.90;99.90;;;;;;4969724;28;20231;-69
2023/11/08 08:04:45;;;;;;;1.65;1.55;;;8.30;99.90;;;;;;4975785;28;20218;-70
2023/11/08 08:07:12;;;;;;;1.70;1.60;;;9.30;99.90;;;;;;4973862;28;20207;-72
2023/11/08 08:09:39;;;;;;;2.83;1.55;;;10.50;99.90;;;;;;4974200;28;20279;-71
2023/11/08 08:12:07;;;;;;;1.00;0.90;;;11.90;99.90;;;;;;4974235;28;20235;-74
2023/11/08 08:14:36;;;;;;;1.20;1.10;;;13.20;99.90;;;;;;4973675;28;20245;-74
2023/11/08 08:17:03;;;;;;;2.40;1.03;;;14.40;99.90;;;;;;4972784;28;20226;-73
2023/11/08 08:19:31;;;;;;;1.60;1.30;;;14.70;99.90;;;;;;4974404;28;20474;-74
2023/11/08 08:22:00;;;;;;;1.60;1.00;;;15.40;99.90;;;;;;4973281;28;20231;-73
2023/11/08 08:24:27;;;;;;;4.10;1.67;;;16.40;99.90;;;;;;4973993;28;20467;-73
2023/11/08 08:26:54;;;;;;;1.30;1.10;;;17.00;99.90;;;;;;4973378;28;20452;-73
2023/11/08 08:29:22;;;;;;;1.50;1.10;;;17.30;99.90;;;;;;4973678;28;20472;-74
2023/11/08 08:31:50;;;;;;;1.07;0.90;;;17.80;99.90;;;;;;4973281;28;20512;-72
2023/11/08 08:34:17;;;;;;;1.70;1.23;;;18.70;99.90;;;;;;4967162;28;20468;-73
2023/11/08 08:36:43;;;;;;;1.73;1.20;;;18.90;99.90;;;;;;4973470;28;21022;-73
2023/11/08 08:39:10;;;;;;;1.40;1.00;;;19.50;99.90;;;;;;4973303;28;20489;-73
2023/11/08 08:41:37;;;;;;;1.53;1.00;;;20.50;99.90;;;;;;4973901;28;20487;-73
2023/11/08 08:44:04;;;;;;;3.10;1.60;;;21.80;99.70;;;;;;4973447;28;20468;-71
2023/11/08 08:46:31;;;;;;;1.50;1.10;;;23.10;98.40;;;;;;4973613;28;20538;-70
2023/11/08 08:49:00;;;;;;;2.33;1.30;;;22.40;96.80;;;;;;4973101;28;20467;-70
2023/11/08 08:51:27;;;;;;;1.67;1.23;;;21.20;98.10;;;;;;4973692;28;20490;-70
2023/11/08 08:54:31;;;;;;;1.10;1.00;;;21.20;98.50;;;;;;5943319;23;20803;-70
2023/11/08 08:57:00;;;;;;;1.33;1.20;;;21.00;98.10;;;;;;4969458;28;20498;-70
2023/11/08 08:59:27;;;;;;;7.10;1.60;;;20.90;97.70;;;;;;4976920;28;20542;-70
2023/11/08 09:01:54;;;;;;;1.27;1.17;;;20.10;97.60;;;;;;4957392;28;20508;-71
2023/11/08 09:04:23;;;;;;;1.40;1.20;;;18.60;98.90;;;;;;4952986;28;20471;-73
2023/11/08 09:06:50;;;;;;;2.23;1.17;;;19.50;99.10;;;;;;4954859;28;20464;-71
2023/11/08 09:09:17;;;;;;;1.60;1.37;;;21.10;97.80;;;;;;4956204;28;20559;-72
2023/11/08 09:11:44;;;;;;;1.77;0.90;;;22.40;96.70;;;;;;4955679;28;20997;-69
2023/11/08 09:14:11;;;;;;;1.30;1.10;;;22.60;95.80;;;;;;4956708;28;20464;-73
2023/11/08 09:16:38;;;;;;;1.50;1.10;;;22.00;96.00;;;;;;4957832;28;20488;-70
2023/11/08 09:19:06;;;;;;;2.03;1.13;;;22.70;96.50;;;;;;4957120;28;20536;-70
2023/11/08 09:21:35;;;;;;;1.93;0.90;;;24.10;95.90;;;;;;4956382;28;20841;-70
2023/11/08 09:24:02;;;;;;;1.50;1.10;;;25.50;94.70;;;;;;4954773;28;20472;-71
2023/11/08 09:26:29;;;;;;;2.10;1.30;;;25.60;93.90;;;;;;4954021;28;20464;-71
2023/11/08 09:28:58;;;;;;;1.10;1.00;;;25.80;92.70;;;;;;4952894;28;20468;-71
2023/11/08 09:31:25;;;;;;;1.00;0.90;;;26.30;92.20;;;;;;4953681;28;20567;-71
2023/11/08 09:33:53;;;;;;;1.20;1.00;;;26.00;92.20;;;;;;4952813;28;20468;-71
2023/11/08 09:36:21;;;;;;;1.00;0.90;;;26.10;92.70;;;;;;4961077;28;21032;-71
2023/11/08 09:38:50;;;;;;;1.30;0.80;;;25.90;92.70;;;;;;4955733;28;20527;-71
2023/11/08 09:41:17;;;;;;;1.80;1.20;;;25.20;91.90;;;;;;4954023;28;20572;-69
2023/11/08 09:43:45;;;;;;;1.10;0.93;;;25.00;92.20;;;;;;4954399;28;20488;-69
2023/11/08 09:46:13;;;;;;;1.00;0.80;;;24.00;92.60;;;;;;4955830;28;20464;-69
2023/11/08 09:48:42;;;;;;;1.37;0.80;;;24.30;93.60;;;;;;4955492;28;20984;-69
2023/11/08 09:51:09;;;;;;;1.30;0.87;;;25.00;92.70;;;;;;4954483;28;20538;-74
2023/11/08 09:53:36;;;;;;;1.20;0.90;;;24.40;92.40;;;;;;4954784;28;20468;-70
2023/11/08 09:56:06;;;;;;;1.40;0.90;;;23.70;92.90;;;;;;4955264;28;20526;-70
2023/11/08 09:58:36;;;;;;;2.13;1.37;;;23.80;92.40;;;;;;4956413;28;20471;-71
2023/11/08 10:01:05;;;;;;;1.70;0.90;;;22.70;93.40;;;;;;4955355;28;20996;-71
2023/11/08 10:03:34;;;;;;;1.10;0.80;;;23.50;93.30;;;;;;4955414;28;20464;-71
2023/11/08 10:06:01;;;;;;;1.27;0.97;;;25.10;91.90;;;;;;4955619;28;20471;-71
2023/11/08 10:08:28;;;;;;;1.57;1.00;;;26.20;92.40;;;;;;4949077;28;20461;-72
2023/11/08 10:10:59;;;;;;;2.37;1.00;;;26.90;90.70;;;;;;4955153;28;20490;-71
2023/11/08 10:13:41;;;;;;;1.20;0.80;;;26.10;90.50;;;;;;4955358;28;20469;-72
2023/11/08 10:16:09;;;;;;;1.40;1.10;;;24.50;91.40;;;;;;4955551;28;20464;-72
2023/11/08 10:18:36;;;;;;;1.87;1.10;;;22.90;92.20;;;;;;4954871;28;20897;-71
2023/11/08 10:21:07;;;;;;;0.90;0.80;;;20.90;93.20;;;;;;4955973;28;20543;-71
2023/11/08 10:23:33;;;;;;;1.00;0.80;;;20.00;94.60;;;;;;4955813;28;20468;-70
2023/11/08 10:26:16;;;;;;;1.90;1.80;;;20.30;95.40;;;;;;4955631;28;20468;-70
2023/11/08 10:29:01;;;;;;;0.90;0.80;;;21.50;94.60;;;;;;4955814;28;20470;-70
2023/11/08 10:31:35;;;;;;;1.10;0.97;;;22.50;93.20;;;;;;4955957;28;20862;-72
2023/11/08 10:34:03;;;;;;;1.67;0.90;;;20.60;93.80;;;;;;4954431;28;20460;-72
2023/11/08 10:36:32;;;;;;;0.90;0.80;;;18.20;95.90;;;;;;4954705;28;20460;-73
2023/11/08 10:38:58;;;;;;;1.20;0.97;;;16.90;97.60;;;;;;4954472;28;20546;-72
2023/11/08 10:41:25;;;;;;;1.10;0.83;;;16.30;98.30;;;;;;4954808;28;20486;-73
2023/11/08 10:44:08;;;;;;;1.30;1.10;;;15.80;98.90;;;;;;4953938;28;20526;-73
2023/11/08 10:46:35;;;;;;;2.00;1.00;;;14.80;99.70;;;;;;4955844;28;20466;-72
2023/11/08 10:49:04;;;;;;;1.30;1.00;;;14.90;99.90;;;;;;4955358;28;20462;-72
2023/11/08 10:51:31;;;;;;;1.20;1.10;;;15.70;99.90;;;;;;4955087;28;20484;-72
2023/11/08 10:53:58;;;;;;;0.90;0.80;;;17.30;99.40;;;;;;4954710;28;20475;-72
2023/11/08 10:56:28;;;;;;;0.93;0.83;;;19.60;97.70;;;;;;4955390;28;20503;-73
2023/11/08 10:58:58;;;;;;;1.10;0.90;;;21.00;94.60;;;;;;4956124;28;20467;-72
2023/11/08 11:01:30;;;;;;;1.10;1.00;;;20.10;95.40;;;;;;4955458;28;20487;-72
2023/11/08 11:04:05;;;;;;;1.40;1.10;;;19.60;96.60;;;;;;4954382;28;20482;-72
2023/11/08 11:06:36;;;;;;;1.30;0.97;;;20.00;96.20;;;;;;4955689;28;20914;-73
2023/11/08 11:09:09;;;;;;;1.33;1.00;;;20.00;95.60;;;;;;4955548;28;20524;-72
2023/11/08 11:11:39;;;;;;;1.40;1.20;;;18.60;96.50;;;;;;4955062;28;20487;-72
2023/11/08 11:14:15;;;;;;;1.10;1.00;;;16.60;98.20;;;;;;4953688;28;20548;-72
2023/11/08 11:16:52;;;;;;;2.07;0.90;;;15.30;99.70;;;;;;4954272;28;20466;-72
2023/11/08 11:19:19;;;;;;;1.73;1.00;;;14.40;99.90;;;;;;4952356;28;20460;-72
2023/11/08 11:21:51;;;;;;;1.27;1.07;;;13.80;99.90;;;;;;4954768;28;20480;-71
2023/11/08 11:24:39;;;;;;;1.10;1.00;;;13.10;99.90;;;;;;4952484;28;20477;-73
2023/11/08 11:27:06;;;;;;;1.23;1.00;;;12.70;99.90;;;;;;4954617;28;20457;-71
2023/11/08 11:29:34;;;;;;;1.20;0.87;;;12.30;99.90;;;;;;4954769;28;20471;-72
2023/11/08 11:32:03;;;;;;;1.40;1.10;;;12.40;99.90;;;;;;4956751;28;20577;-72
2023/11/08 11:34:44;;;;;;;1.47;0.93;;;12.40;99.90;;;;;;4956715;28;20562;-72
2023/11/08 11:37:12;;;;;;;1.30;1.08;;;12.30;99.90;;;;;;4957210;28;20504;-72
2023/11/08 11:39:41;;;;;;;1.00;0.90;;;12.20;99.90;;;;;;4957648;28;20852;-73
2023/11/08 11:42:14;;;;;;;1.42;0.80;;;12.60;99.90;;;;;;4957830;28;20237;-72
2023/11/08 11:44:42;;;;;;;1.98;1.00;;;13.10;99.90;;;;;;4958100;28;20286;-72
2023/11/08 11:47:12;;;;;;;0.90;0.70;;;14.30;99.90;;;;;;4957240;28;20295;-72
2023/11/08 11:49:40;;;;;;;0.90;0.80;;;15.70;99.90;;;;;;4957843;28;20845;-72
2023/11/08 11:52:08;;;;;;;1.10;0.90;;;15.90;99.90;;;;;;4957336;28;20562;-70
2023/11/08 11:54:35;;;;;;;1.10;0.93;;;15.60;99.90;;;;;;4957173;28;20999;-70
2023/11/08 11:57:03;;;;;;;1.13;0.90;;;15.10;99.90;;;;;;4956512;28;20523;-71
2023/11/08 11:59:30;;;;;;;1.17;0.87;;;14.50;99.90;;;;;;4957057;28;20949;-71
2023/11/08 12:01:56;;;;;;;0.90;0.70;;;13.80;99.90;;;;;;4957117;28;20487;-72
2023/11/08 12:04:25;;;;;;;1.10;1.00;;;13.10;99.90;;;;;;4955252;28;20464;-72
2023/11/08 12:06:51;;;;;;;1.10;0.70;;;12.90;99.90;;;;;;4955919;28;20472;-71
2023/11/08 12:09:19;;;;;;;1.73;0.90;;;12.80;99.90;;;;;;4957736;28;20479;-70
2023/11/08 12:11:49;;;;;;;3.77;1.57;;;12.70;99.90;;;;;;4956518;28;20490;-71
2023/11/08 12:14:21;;;;;;;2.20;0.90;;;12.60;99.90;;;;;;4957093;28;20463;-70
2023/11/08 12:16:48;;;;;;;0.90;0.80;;;12.50;99.90;;;;;;4959999;28;20463;-71
2023/11/08 12:19:15;;;;;;;1.00;0.80;;;12.60;99.90;;;;;;4958274;28;20216;-70
2023/11/08 12:21:44;;;;;;;1.33;1.10;;;12.40;99.90;;;;;;4957992;28;20228;-71
2023/11/08 12:24:11;;;;;;;1.23;1.02;;;12.40;99.90;;;;;;4958391;28;20220;-70
2023/11/08 12:26:38;;;;;;;1.40;1.00;;;12.30;99.90;;;;;;4959068;28;20204;-71
2023/11/08 12:29:06;;;;;;;1.93;1.10;;;12.20;99.90;;;;;;4957914;28;20467;-71
2023/11/08 12:31:35;;;;;;;2.10;0.90;;;12.30;99.90;;;;;;4952403;28;20541;-71
2023/11/08 12:34:05;;;;;;;0.90;0.70;;;12.50;99.90;;;;;;4957109;28;20562;-71
2023/11/08 12:36:33;;;;;;;0.90;0.70;;;12.90;99.90;;;;;;4957741;28;20212;-71
2023/11/08 12:39:02;;;;;;;0.80;0.70;;;13.20;99.90;;;;;;4957134;28;20494;-72
2023/11/08 12:41:42;;;;;;;1.00;0.70;;;13.40;99.90;;;;;;4956843;28;20865;-70
2023/11/08 12:44:08;;;;;;;1.53;0.80;;;13.40;99.90;;;;;;4956157;28;20463;-71
2023/11/08 12:46:47;;;;;;;1.87;0.90;;;13.40;99.90;;;;;;4957848;28;20459;-71
2023/11/08 12:49:15;;;;;;;1.17;0.80;;;13.30;99.90;;;;;;4955184;28;20456;-71
2023/11/08 12:51:42;;;;;;;0.90;0.80;;;13.40;99.90;;;;;;4963648;28;20511;-71
2023/11/08 12:54:11;;;;;;;1.10;0.90;;;13.70;99.90;;;;;;4956469;28;20289;-71
2023/11/08 12:56:39;;;;;;;1.00;0.80;;;13.80;99.90;;;;;;4956639;28;20223;-71
2023/11/08 12:59:16;;;;;;;1.70;0.90;;;13.60;99.90;;;;;;4956932;28;20876;-72
2023/11/08 13:01:44;;;;;;;0.90;0.70;;;13.30;99.90;;;;;;4956859;28;20491;-69
2023/11/08 13:04:12;;;;;;;0.93;0.75;;;13.10;99.90;;;;;;4956007;28;20680;-69
2023/11/08 13:06:39;;;;;;;0.90;0.80;;;12.80;99.90;;;;;;4956785;28;20303;-69
2023/11/08 13:09:06;;;;;;;1.00;0.80;;;12.70;99.90;;;;;;4956224;28;20463;-69
2023/11/08 13:11:34;;;;;;;1.13;0.85;;;12.50;99.90;;;;;;4955793;28;20484;-75
2023/11/08 13:14:01;;;;;;;1.85;0.90;;;12.50;99.90;;;;;;4955681;28;20215;-72
2023/11/08 13:16:28;;;;;;;1.67;1.40;;;12.40;99.90;;;;;;4956191;28;20275;-71
2023/11/08 13:18:55;;;;;;;1.10;0.95;;;12.20;99.90;;;;;;4956504;28;21153;-72
2023/11/08 13:21:22;;;;;;;1.45;0.90;;;12.10;99.90;;;;;;4956549;28;20237;-71
2023/11/08 13:23:49;;;;;;;1.00;0.70;;;11.90;99.90;;;;;;4956041;28;20664;-72
2023/11/08 13:26:15;;;;;;;1.13;0.90;;;11.80;99.90;;;;;;4954642;28;20665;-71
2023/11/08 13:28:44;;;;;;;0.90;0.70;;;11.70;99.90;;;;;;4956243;28;20206;-74
2023/11/08 13:31:11;;;;;;;1.33;0.82;;;11.50;99.90;;;;;;4956247;28;20232;-74
2023/11/08 13:33:39;;;;;;;1.00;0.80;;;11.50;99.90;;;;;;4960513;28;20211;-74
2023/11/08 13:36:06;;;;;;;1.40;1.10;;;11.30;99.90;;;;;;4956296;28;20235;-71
2023/11/08 13:38:34;;;;;;;2.75;0.80;;;11.20;99.90;;;;;;4955557;28;20245;-71
2023/11/08 13:41:02;;;;;;;1.00;0.90;;;11.10;99.90;;;;;;4955747;28;20231;-73
2023/11/08 13:43:29;;;;;;;0.90;0.70;;;11.10;99.90;;;;;;4954775;28;20214;-72
2023/11/08 13:45:57;;;;;;;2.55;1.00;;;11.10;99.90;;;;;;4956799;28;20226;-73
2023/11/08 13:48:25;;;;;;;1.30;1.02;;;11.10;99.90;;;;;;4955205;28;20203;-73
2023/11/08 13:50:51;;;;;;;1.10;0.80;;;11.00;99.90;;;;;;4955462;28;20301;-71
2023/11/08 13:53:18;;;;;;;3.35;1.15;;;11.10;99.90;;;;;;4956893;28;20205;-71
2023/11/08 13:55:45;;;;;;;1.08;0.80;;;11.10;99.90;;;;;;4958204;28;20221;-71
2023/11/08 13:58:12;;;;;;;1.20;0.77;;;11.20;99.90;;;;;;4957427;28;20651;-71
2023/11/08 14:00:39;;;;;;;1.45;0.80;;;11.30;99.90;;;;;;4956928;28;20232;-71
2023/11/08 14:03:07;;;;;;;1.10;0.90;;;11.20;99.90;;;;;;4955884;28;20724;-71
2023/11/08 14:05:34;;;;;;;1.00;0.80;;;11.20;99.90;;;;;;4957045;28;20207;-71
2023/11/08 14:08:02;;;;;;;1.10;0.95;;;11.20;99.90;;;;;;4958075;28;20569;-71
2023/11/08 14:10:29;;;;;;;1.10;0.80;;;11.20;99.90;;;;;;4958455;28;20273;-70
2023/11/08 14:12:56;;;;;;;0.88;0.75;;;11.30;99.90;;;;;;4955564;28;20277;-71
2023/11/08 14:15:24;;;;;;;2.70;1.10;;;11.30;99.90;;;;;;4954850;28;20207;-70
2023/11/08 14:17:51;;;;;;;1.70;0.80;;;11.30;99.90;;;;;;4954949;28;20261;-71
2023/11/08 14:20:20;;;;;;;2.17;1.20;;;11.20;99.90;;;;;;4955516;28;20219;-70
2023/11/08 14:22:47;;;;;;;1.50;0.80;;;11.20;99.90;;;;;;4954920;28;20626;-70
2023/11/08 14:25:14;;;;;;;2.63;1.02;;;11.00;99.90;;;;;;4954935;28;20218;-70
2023/11/08 14:27:40;;;;;;;0.90;0.70;;;10.90;99.90;;;;;;4954342;28;20213;-70
2023/11/08 14:30:09;;;;;;;1.55;0.80;;;11.00;99.90;;;;;;4954595;28;20211;-70
2023/11/08 14:32:36;;;;;;;3.55;1.40;;;11.10;99.90;;;;;;4954639;28;20222;-69
2023/11/08 14:35:03;;;;;;;1.10;0.90;;;11.30;99.90;;;;;;4955685;28;20396;-70
2023/11/08 14:37:31;;;;;;;1.05;0.95;;;11.30;99.90;;;;;;4955711;28;20211;-71
2023/11/08 14:39:58;;;;;;;0.80;0.80;;;11.60;99.90;;;;;;4954016;28;20236;-71
2023/11/08 14:42:25;;;;;;;1.80;0.82;;;11.80;99.90;;;;;;4954051;28;20231;-71
2023/11/08 14:44:52;;;;;;;1.10;0.90;;;11.80;99.90;;;;;;4953727;28;20214;-72
2023/11/08 14:47:20;;;;;;;1.73;1.17;;;11.60;99.90;;;;;;4958410;28;20207;-71
2023/11/08 14:49:47;;;;;;;1.20;0.88;;;11.40;99.90;;;;;;4953915;28;20677;-71
2023/11/08 14:52:14;;;;;;;0.90;0.80;;;11.10;99.90;;;;;;4954680;28;20237;-72
2023/11/08 14:54:44;;;;;;;1.25;0.90;;;11.00;99.90;;;;;;4954537;28;20211;-72
2023/11/08 14:57:13;;;;;;;1.00;0.80;;;10.90;99.90;;;;;;4953207;28;20282;-72
2023/11/08 14:59:40;;;;;;;1.00;0.80;;;10.80;99.90;;;;;;4952027;28;20226;-71
2023/11/08 15:02:06;;;;;;;1.40;1.20;;;10.70;99.90;;;;;;4952507;28;20236;-71
2023/11/08 15:04:33;;;;;;;1.45;1.10;;;10.60;99.90;;;;;;4952030;28;20229;-71
2023/11/08 15:07:00;;;;;;;1.70;0.85;;;10.60;99.90;;;;;;4956923;28;20289;-72
2023/11/08 15:09:27;;;;;;;1.75;0.90;;;10.60;99.90;;;;;;4956512;28;20292;-72
2023/11/08 15:11:57;;;;;;;2.30;1.20;;;10.60;99.90;;;;;;4956056;28;20607;-71
2023/11/08 15:14:24;;;;;;;1.45;1.10;;;10.40;99.90;;;;;;4953341;28;20214;-71
2023/11/08 15:16:52;;;;;;;2.00;0.90;;;10.40;99.90;;;;;;4956764;28;20739;-71
2023/11/08 15:19:19;;;;;;;1.88;1.23;;;10.30;99.90;;;;;;4957307;28;20891;-71
2023/11/08 15:21:47;;;;;;;1.55;1.00;;;10.30;99.90;;;;;;4957331;28;20326;-71
2023/11/08 15:24:15;;;;;;;2.33;1.10;;;10.30;99.90;;;;;;4956475;28;20235;-71
2023/11/08 15:26:42;;;;;;;0.90;0.70;;;10.30;99.90;;;;;;4956969;28;20206;-70
2023/11/08 15:29:10;;;;;;;1.13;0.80;;;10.30;99.90;;;;;;4956932;28;20776;-72
2023/11/08 15:31:37;;;;;;;2.00;1.00;;;10.30;99.90;;;;;;4956627;28;20331;-71
2023/11/08 15:34:04;;;;;;;1.42;1.23;;;10.20;99.90;;;;;;4955829;28;20249;-71
2023/11/08 15:36:31;;;;;;;1.90;1.23;;;10.10;99.90;;;;;;4956028;28;20236;-71
2023/11/08 15:38:58;;;;;;;1.33;1.23;;;10.10;99.90;;;;;;4955770;28;20604;-71
2023/11/08 15:41:26;;;;;;;1.42;1.02;;;10.00;99.90;;;;;;4955759;28;20296;-71
2023/11/08 15:43:54;;;;;;;1.48;0.90;;;9.90;99.90;;;;;;4955672;28;20218;-71
2023/11/08 15:46:25;;;;;;;1.20;0.93;;;9.90;99.90;;;;;;4955986;28;20277;-71
2023/11/08 15:48:52;;;;;;;1.27;1.00;;;9.80;99.90;;;;;;4955724;28;20205;-71
2023/11/08 15:51:20;;;;;;;1.25;0.80;;;9.70;99.90;;;;;;4955761;28;20233;-71
2023/11/08 15:53:48;;;;;;;1.60;1.08;;;9.60;99.90;;;;;;4954855;28;20244;-71
2023/11/08 15:56:15;;;;;;;1.75;1.13;;;9.50;99.90;;;;;;4955767;28;20244;-71
2023/11/08 15:58:43;;;;;;;1.50;1.20;;;9.40;99.90;;;;;;4950737;28;20304;-70
2023/11/08 16:01:10;;;;;;;1.73;0.93;;;9.30;99.90;;;;;;4955190;28;20229;-70
2023/11/08 16:03:38;;;;;;;1.85;1.10;;;9.20;99.90;;;;;;4953188;28;20652;-71
2023/11/08 16:06:06;;;;;;;1.85;1.10;;;9.10;99.90;;;;;;4955318;28;20220;-69
2023/11/08 16:08:33;;;;;;;3.65;1.00;;;9.00;99.90;;;;;;4955316;28;20213;-71
2023/11/08 16:10:59;;;;;;;1.15;1.05;;;8.90;99.90;;;;;;4955594;28;20256;-71
2023/11/08 16:13:27;;;;;;;1.48;1.10;;;8.80;99.90;;;;;;4958143;28;20455;-71
2023/11/08 16:15:54;;;;;;;1.85;1.52;;;8.80;99.90;;;;;;4956564;28;20215;-71
2023/11/08 16:18:21;;;;;;;1.35;1.10;;;8.70;99.90;;;;;;4953168;28;20244;-70
2023/11/08 16:20:51;;;;;;;0.90;0.80;;;8.70;99.90;;;;;;4954298;28;20291;-70
2023/11/08 16:23:18;;;;;;;2.85;1.27;;;8.70;99.90;;;;;;4950834;28;20272;-69
2023/11/08 16:25:45;;;;;;;2.45;1.15;;;8.60;99.90;;;;;;4954372;28;20217;-70
2023/11/08 16:28:12;;;;;;;1.15;1.05;;;8.60;99.90;;;;;;4958369;28;20232;-70
2023/11/08 16:30:40;;;;;;;1.42;1.08;;;8.50;99.90;;;;;;4953961;28;20287;-71
2023/11/08 16:33:07;;;;;;;1.27;1.13;;;8.50;99.90;;;;;;4948126;28;20217;-70
2023/11/08 16:35:34;;;;;;;1.60;1.13;;;8.40;99.90;;;;;;4952593;28;20579;-70
2023/11/08 16:38:06;;;;;;;2.35;1.15;;;8.40;99.90;;;;;;4953127;28;20217;-71
2023/11/08 16:40:33;;;;;;;1.20;1.10;;;8.30;99.90;;;;;;4953489;28;20225;-71
2023/11/08 16:43:00;;;;;;;2.45;0.90;;;8.30;99.90;;;;;;4960252;28;20300;-70
2023/11/08 16:45:27;;;;;;;1.48;1.00;;;8.20;99.90;;;;;;4954492;28;20222;-70
2023/11/08 16:47:53;;;;;;;2.25;1.10;;;8.20;99.90;;;;;;4952672;28;20209;-71
2023/11/08 16:50:21;;;;;;;1.55;1.10;;;8.10;99.90;;;;;;4953525;28;20698;-70
2023/11/08 16:52:48;;;;;;;1.63;1.13;;;8.00;99.90;;;;;;4952430;28;20670;-71
2023/11/08 16:55:16;;;;;;;1.33;1.00;;;7.90;99.90;;;;;;4956666;28;20227;-70
2023/11/08 16:57:43;;;;;;;2.03;1.00;;;7.70;99.90;;;;;;4949355;28;20205;-71
2023/11/08 17:00:13;;;;;;;1.30;1.02;;;7.60;99.90;;;;;;4952921;28;21221;-71
2023/11/08 17:02:40;;;;;;;1.27;1.10;;;7.50;99.90;;;;;;4953213;28;20205;-71
2023/11/08 17:05:07;;;;;;;1.10;1.00;;;7.40;99.90;;;;;;4952297;28;20219;-71
2023/11/08 17:07:34;;;;;;;2.63;1.30;;;7.30;99.90;;;;;;4952635;28;20701;-70
2023/11/08 17:10:02;;;;;;;5.80;2.00;;;7.10;99.90;;;;;;4953096;28;20208;-71